sensor_id;sensor_type;location;lat;lon;timestamp;temperature;humidity
4461;DHT22;2243;48.812;9.232;2022-10-17T00:00:49;14.20;99.90
4461;DHT22;2243;48.812;9.232;2022-10-17T00:03:20;14.10;99.90
4461;DHT22;2243;48.812;9.232;2022-10-17T00:05:51;14.10;99.90
4461;DHT22;2243;48.812;9.232;2022-10-17T00:08:22;14.10;99.90
4461;DHT22;2243;48.812;9.232;2022-10-17T00:10:58;14.10;99.90
4461;DHT22;2243;48.812;9.232;2022-10-17T00:13:31;14.20;99.90
4461;DHT22;2243;48.812;9.232;2022-10-17T00:16:08;14.10;99.90
4461;DHT22;2243;48.812;9.232;2022-10-17T00:18:40;14.10;99.90
4461;DHT22;2243;48.812;9.232;2022-10-17T00:21:16;14.10;99.90
4461;DHT22;2243;48.812;9.232;2022-10-17T00:23:47;14.00;99.90
4461;DHT22;2243;48.812;9.232;2022-10-17T00:26:19;14.00;99.90
4461;DHT22;2243;48.812;9.232;2022-10-17T00:28:51;13.90;99.90
4461;DHT22;2243;48.812;9.232;2022-10-17T00:31:23;13.90;99.90
4461;DHT22;2243;48.812;9.232;2022-10-17T00:33:55;13.90;99.90
4461;DHT22;2243;48.812;9.232;2022-10-17T00:36:26;13.90;99.90
4461;DHT22;2243;48.812;9.232;2022-10-17T00:38:58;13.80;99.90
4461;DHT22;2243;48.812;9.232;2022-10-17T00:41:32;13.80;99.90
4461;DHT22;2243;48.812;9.232;2022-10-17T00:44:06;13.80;99.90
4461;DHT22;2243;48.812;9.232;2022-10-17T00:47:00;13.80;99.90
4461;DHT22;2243;48.812;9.232;2022-10-17T00:49:35;13.80;99.90
4461;DHT22;2243;48.812;9.232;2022-10-17T00:52:13;13.70;99.90
4461;DHT22;2243;48.812;9.232;2022-10-17T00:54:58;13.80;99.90
4461;DHT22;2243;48.812;9.232;2022-10-17T00:57:33;13.80;99.90
4461;DHT22;2243;48.812;9.232;2022-10-17T01:00:07;13.80;99.90
4461;DHT22;2243;48.812;9.232;2022-10-17T01:02:39;13.80;99.90
4461;DHT22;2243;48.812;9.232;2022-10-17T01:05:11;13.90;99.90
4461;DHT22;2243;48.812;9.232;2022-10-17T01:07:43;13.90;99.90
4461;DHT22;2243;48.812;9.232;2022-10-17T01:10:15;13.90;99.90
4461;DHT22;2243;48.812;9.232;2022-10-17T01:13:05;13.80;99.90
4461;DHT22;2243;48.812;9.232;2022-10-17T01:19:05;13.80;99.90
4461;DHT22;2243;48.812;9.232;2022-10-17T01:22:13;13.80;99.90
4461;DHT22;2243;48.812;9.232;2022-10-17T01:31:17;13.80;99.90
4461;DHT22;2243;48.812;9.232;2022-10-17T01:37:13;13.80;99.90
4461;DHT22;2243;48.812;9.232;2022-10-17T01:40:06;13.80;99.90
4461;DHT22;2243;48.812;9.232;2022-10-17T01:42:57;13.80;99.90
4461;DHT22;2243;48.812;9.232;2022-10-17T01:45:42;13.80;99.90
4461;DHT22;2243;48.812;9.232;2022-10-17T01:48:24;13.80;99.90
4461;DHT22;2243;48.812;9.232;2022-10-17T01:51:11;14.00;99.90
4461;DHT22;2243;48.812;9.232;2022-10-17T01:53:53;13.90;99.90
4461;DHT22;2243;48.812;9.232;2022-10-17T01:56:30;14.00;99.90
4461;DHT22;2243;48.812;9.232;2022-10-17T01:59:09;13.90;99.90
4461;DHT22;2243;48.812;9.232;2022-10-17T02:01:53;13.80;99.90
4461;DHT22;2243;48.812;9.232;2022-10-17T02:04:25;13.70;99.90
4461;DHT22;2243;48.812;9.232;2022-10-17T02:06:56;13.70;99.90
4461;DHT22;2243;48.812;9.232;2022-10-17T02:09:36;13.70;99.90
4461;DHT22;2243;48.812;9.232;2022-10-17T02:15:24;13.60;99.90
4461;DHT22;2243;48.812;9.232;2022-10-17T02:21:06;13.60;99.90
4461;DHT22;2243;48.812;9.232;2022-10-17T02:24:19;13.50;99.90
4461;DHT22;2243;48.812;9.232;2022-10-17T02:30:22;13.40;99.90
4461;DHT22;2243;48.812;9.232;2022-10-17T02:33:20;13.40;99.90
4461;DHT22;2243;48.812;9.232;2022-10-17T02:35:58;13.30;99.90
4461;DHT22;2243;48.812;9.232;2022-10-17T02:38:33;13.30;99.90
4461;DHT22;2243;48.812;9.232;2022-10-17T02:41:08;13.30;99.90
4461;DHT22;2243;48.812;9.232;2022-10-17T02:43:41;13.30;99.90
4461;DHT22;2243;48.812;9.232;2022-10-17T02:46:17;13.30;99.90
4461;DHT22;2243;48.812;9.232;2022-10-17T02:48:59;13.20;99.90
4461;DHT22;2243;48.812;9.232;2022-10-17T02:51:46;13.30;99.90
4461;DHT22;2243;48.812;9.232;2022-10-17T02:54:30;13.30;99.90
4461;DHT22;2243;48.812;9.232;2022-10-17T02:57:13;13.40;99.90
4461;DHT22;2243;48.812;9.232;2022-10-17T02:59:48;13.40;99.90
4461;DHT22;2243;48.812;9.232;2022-10-17T03:02:19;13.40;99.90
4461;DHT22;2243;48.812;9.232;2022-10-17T03:04:51;13.40;99.90
4461;DHT22;2243;48.812;9.232;2022-10-17T03:07:22;13.40;99.90
4461;DHT22;2243;48.812;9.232;2022-10-17T03:09:53;13.40;99.90
4461;DHT22;2243;48.812;9.232;2022-10-17T03:12:24;13.40;99.90
4461;DHT22;2243;48.812;9.232;2022-10-17T03:14:55;13.40;99.90
4461;DHT22;2243;48.812;9.232;2022-10-17T03:17:26;13.40;99.90
4461;DHT22;2243;48.812;9.232;2022-10-17T03:19:57;13.40;99.90
4461;DHT22;2243;48.812;9.232;2022-10-17T03:22:28;13.40;99.90
4461;DHT22;2243;48.812;9.232;2022-10-17T03:24:59;13.40;99.90
4461;DHT22;2243;48.812;9.232;2022-10-17T03:27:30;13.60;99.90
4461;DHT22;2243;48.812;9.232;2022-10-17T03:30:02;13.80;99.90
4461;DHT22;2243;48.812;9.232;2022-10-17T03:32:33;13.70;99.90
4461;DHT22;2243;48.812;9.232;2022-10-17T03:35:04;13.90;99.90
4461;DHT22;2243;48.812;9.232;2022-10-17T03:37:35;13.80;99.90
4461;DHT22;2243;48.812;9.232;2022-10-17T03:40:06;14.00;99.90
4461;DHT22;2243;48.812;9.232;2022-10-17T03:42:38;14.10;99.90
4461;DHT22;2243;48.812;9.232;2022-10-17T03:45:09;14.10;99.90
4461;DHT22;2243;48.812;9.232;2022-10-17T03:47:40;14.00;99.90
4461;DHT22;2243;48.812;9.232;2022-10-17T03:50:11;13.90;99.90
4461;DHT22;2243;48.812;9.232;2022-10-17T03:52:46;13.80;99.90
4461;DHT22;2243;48.812;9.232;2022-10-17T03:55:17;13.70;99.90
4461;DHT22;2243;48.812;9.232;2022-10-17T03:57:48;13.70;99.90
4461;DHT22;2243;48.812;9.232;2022-10-17T04:00:19;13.70;99.90
4461;DHT22;2243;48.812;9.232;2022-10-17T04:02:50;13.60;99.90
4461;DHT22;2243;48.812;9.232;2022-10-17T04:05:21;13.60;99.90
4461;DHT22;2243;48.812;9.232;2022-10-17T04:07:52;13.60;99.90
4461;DHT22;2243;48.812;9.232;2022-10-17T04:10:23;13.50;99.90
4461;DHT22;2243;48.812;9.232;2022-10-17T04:12:54;13.60;99.90
4461;DHT22;2243;48.812;9.232;2022-10-17T04:15:25;13.60;99.90
4461;DHT22;2243;48.812;9.232;2022-10-17T04:17:56;13.50;99.90
4461;DHT22;2243;48.812;9.232;2022-10-17T04:20:27;13.60;99.90
4461;DHT22;2243;48.812;9.232;2022-10-17T04:22:58;13.60;99.90
4461;DHT22;2243;48.812;9.232;2022-10-17T04:25:29;13.60;99.90
4461;DHT22;2243;48.812;9.232;2022-10-17T04:28:05;13.50;99.90
4461;DHT22;2243;48.812;9.232;2022-10-17T04:30:36;13.60;99.90
4461;DHT22;2243;48.812;9.232;2022-10-17T04:33:13;13.60;99.90
4461;DHT22;2243;48.812;9.232;2022-10-17T04:35:43;13.60;99.90
4461;DHT22;2243;48.812;9.232;2022-10-17T04:38:27;13.70;99.90
4461;DHT22;2243;48.812;9.232;2022-10-17T04:40:59;13.70;99.90
4461;DHT22;2243;48.812;9.232;2022-10-17T04:43:34;13.60;99.90
4461;DHT22;2243;48.812;9.232;2022-10-17T04:46:08;13.70;99.90
4461;DHT22;2243;48.812;9.232;2022-10-17T04:48:41;13.70;99.90
4461;DHT22;2243;48.812;9.232;2022-10-17T04:51:15;13.60;99.90
4461;DHT22;2243;48.812;9.232;2022-10-17T04:53:52;13.60;99.90
4461;DHT22;2243;48.812;9.232;2022-10-17T04:56:24;13.70;99.90
4461;DHT22;2243;48.812;9.232;2022-10-17T04:58:55;13.60;99.90
4461;DHT22;2243;48.812;9.232;2022-10-17T05:01:28;13.70;99.90
4461;DHT22;2243;48.812;9.232;2022-10-17T05:03:59;13.70;99.90
4461;DHT22;2243;48.812;9.232;2022-10-17T05:06:30;13.70;99.90
4461;DHT22;2243;48.812;9.232;2022-10-17T05:09:02;13.70;99.90
4461;DHT22;2243;48.812;9.232;2022-10-17T05:11:33;13.70;99.90
4461;DHT22;2243;48.812;9.232;2022-10-17T05:14:04;13.60;99.90
4461;DHT22;2243;48.812;9.232;2022-10-17T05:16:36;13.50;99.90
4461;DHT22;2243;48.812;9.232;2022-10-17T05:19:07;13.50;99.90
4461;DHT22;2243;48.812;9.232;2022-10-17T05:21:38;13.60;99.90
4461;DHT22;2243;48.812;9.232;2022-10-17T05:24:11;13.60;99.90
4461;DHT22;2243;48.812;9.232;2022-10-17T05:26:43;13.60;99.90
4461;DHT22;2243;48.812;9.232;2022-10-17T05:29:14;13.50;99.90
4461;DHT22;2243;48.812;9.232;2022-10-17T05:31:45;13.50;99.90
4461;DHT22;2243;48.812;9.232;2022-10-17T05:34:16;13.50;99.90
4461;DHT22;2243;48.812;9.232;2022-10-17T05:36:47;13.40;99.90
4461;DHT22;2243;48.812;9.232;2022-10-17T05:39:18;13.50;99.90
4461;DHT22;2243;48.812;9.232;2022-10-17T05:41:49;13.50;99.90
4461;DHT22;2243;48.812;9.232;2022-10-17T05:44:21;13.50;99.90
4461;DHT22;2243;48.812;9.232;2022-10-17T05:46:52;13.50;99.90
4461;DHT22;2243;48.812;9.232;2022-10-17T05:49:23;13.50;99.90
4461;DHT22;2243;48.812;9.232;2022-10-17T05:52:13;13.60;99.90
4461;DHT22;2243;48.812;9.232;2022-10-17T05:54:44;13.60;99.90
4461;DHT22;2243;48.812;9.232;2022-10-17T05:57:15;13.50;99.90
4461;DHT22;2243;48.812;9.232;2022-10-17T05:59:46;13.40;99.90
4461;DHT22;2243;48.812;9.232;2022-10-17T06:02:17;13.40;99.90
4461;DHT22;2243;48.812;9.232;2022-10-17T06:04:48;13.30;99.90
4461;DHT22;2243;48.812;9.232;2022-10-17T06:07:19;13.30;99.90
4461;DHT22;2243;48.812;9.232;2022-10-17T06:09:50;13.20;99.90
4461;DHT22;2243;48.812;9.232;2022-10-17T06:12:21;13.20;99.90
4461;DHT22;2243;48.812;9.232;2022-10-17T06:14:52;13.20;99.90
4461;DHT22;2243;48.812;9.232;2022-10-17T06:17:23;13.20;99.90
4461;DHT22;2243;48.812;9.232;2022-10-17T06:19:55;13.20;99.90
4461;DHT22;2243;48.812;9.232;2022-10-17T06:22:26;13.10;99.90
4461;DHT22;2243;48.812;9.232;2022-10-17T06:24:58;13.10;99.90
4461;DHT22;2243;48.812;9.232;2022-10-17T06:27:29;13.10;99.90
4461;DHT22;2243;48.812;9.232;2022-10-17T06:30:00;13.10;99.90
4461;DHT22;2243;48.812;9.232;2022-10-17T06:32:33;13.10;99.90
4461;DHT22;2243;48.812;9.232;2022-10-17T06:35:05;13.10;99.90
4461;DHT22;2243;48.812;9.232;2022-10-17T06:37:36;13.10;99.90
4461;DHT22;2243;48.812;9.232;2022-10-17T06:40:08;13.00;99.90
4461;DHT22;2243;48.812;9.232;2022-10-17T06:42:42;13.10;99.90
4461;DHT22;2243;48.812;9.232;2022-10-17T06:45:13;13.10;99.90
4461;DHT22;2243;48.812;9.232;2022-10-17T06:47:44;13.10;99.90
4461;DHT22;2243;48.812;9.232;2022-10-17T06:50:15;13.10;99.90
4461;DHT22;2243;48.812;9.232;2022-10-17T06:52:50;13.20;99.90
4461;DHT22;2243;48.812;9.232;2022-10-17T06:55:21;13.20;99.90
4461;DHT22;2243;48.812;9.232;2022-10-17T06:57:54;13.20;99.90
4461;DHT22;2243;48.812;9.232;2022-10-17T07:00:25;13.30;99.90
4461;DHT22;2243;48.812;9.232;2022-10-17T07:02:56;13.40;99.90
4461;DHT22;2243;48.812;9.232;2022-10-17T07:05:27;13.50;99.90
4461;DHT22;2243;48.812;9.232;2022-10-17T07:07:58;13.70;99.90
4461;DHT22;2243;48.812;9.232;2022-10-17T07:10:29;13.80;99.90
4461;DHT22;2243;48.812;9.232;2022-10-17T07:13:00;13.80;99.90
4461;DHT22;2243;48.812;9.232;2022-10-17T07:15:31;13.80;99.90
4461;DHT22;2243;48.812;9.232;2022-10-17T07:18:02;14.00;99.90
4461;DHT22;2243;48.812;9.232;2022-10-17T07:20:33;14.00;99.90
4461;DHT22;2243;48.812;9.232;2022-10-17T07:23:05;14.10;99.90
4461;DHT22;2243;48.812;9.232;2022-10-17T07:25:36;14.00;99.90
4461;DHT22;2243;48.812;9.232;2022-10-17T07:28:09;14.00;99.90
4461;DHT22;2243;48.812;9.232;2022-10-17T07:30:42;14.20;99.90
4461;DHT22;2243;48.812;9.232;2022-10-17T07:33:14;14.40;99.90
4461;DHT22;2243;48.812;9.232;2022-10-17T07:35:45;14.40;99.90
4461;DHT22;2243;48.812;9.232;2022-10-17T07:38:15;14.50;99.90
4461;DHT22;2243;48.812;9.232;2022-10-17T07:40:53;14.50;99.90
4461;DHT22;2243;48.812;9.232;2022-10-17T07:43:28;14.70;99.90
4461;DHT22;2243;48.812;9.232;2022-10-17T07:46:00;14.80;99.90
4461;DHT22;2243;48.812;9.232;2022-10-17T07:48:31;14.90;99.90
4461;DHT22;2243;48.812;9.232;2022-10-17T07:51:04;15.00;99.90
4461;DHT22;2243;48.812;9.232;2022-10-17T07:53:38;15.10;99.90
4461;DHT22;2243;48.812;9.232;2022-10-17T07:56:13;15.10;99.90
4461;DHT22;2243;48.812;9.232;2022-10-17T07:58:44;15.20;99.90
4461;DHT22;2243;48.812;9.232;2022-10-17T08:01:15;15.30;99.90
4461;DHT22;2243;48.812;9.232;2022-10-17T08:03:47;15.40;99.90
4461;DHT22;2243;48.812;9.232;2022-10-17T08:06:18;15.40;99.90
4461;DHT22;2243;48.812;9.232;2022-10-17T08:08:49;15.60;99.90
4461;DHT22;2243;48.812;9.232;2022-10-17T08:11:20;15.80;99.90
4461;DHT22;2243;48.812;9.232;2022-10-17T08:13:52;15.90;99.90
4461;DHT22;2243;48.812;9.232;2022-10-17T08:16:23;16.00;99.90
4461;DHT22;2243;48.812;9.232;2022-10-17T08:18:54;16.20;99.90
4461;DHT22;2243;48.812;9.232;2022-10-17T08:21:25;16.20;99.90
4461;DHT22;2243;48.812;9.232;2022-10-17T08:23:56;16.30;99.90
4461;DHT22;2243;48.812;9.232;2022-10-17T08:26:27;16.50;99.90
4461;DHT22;2243;48.812;9.232;2022-10-17T08:28:58;16.60;99.90
4461;DHT22;2243;48.812;9.232;2022-10-17T08:31:29;16.70;99.90
4461;DHT22;2243;48.812;9.232;2022-10-17T08:34:00;16.80;99.90
4461;DHT22;2243;48.812;9.232;2022-10-17T08:36:31;16.80;99.90
4461;DHT22;2243;48.812;9.232;2022-10-17T08:39:03;16.90;99.90
4461;DHT22;2243;48.812;9.232;2022-10-17T08:41:59;17.00;99.90
4461;DHT22;2243;48.812;9.232;2022-10-17T08:47:45;17.20;99.90
4461;DHT22;2243;48.812;9.232;2022-10-17T08:50:41;17.40;99.90
4461;DHT22;2243;48.812;9.232;2022-10-17T08:53:42;17.50;99.90
4461;DHT22;2243;48.812;9.232;2022-10-17T08:56:22;17.70;99.90
4461;DHT22;2243;48.812;9.232;2022-10-17T08:59:26;17.80;99.90
4461;DHT22;2243;48.812;9.232;2022-10-17T09:08:12;18.10;99.90
4461;DHT22;2243;48.812;9.232;2022-10-17T09:11:10;18.30;99.90
4461;DHT22;2243;48.812;9.232;2022-10-17T09:14:25;18.40;99.90
4461;DHT22;2243;48.812;9.232;2022-10-17T09:20:09;18.70;99.90
4461;DHT22;2243;48.812;9.232;2022-10-17T09:25:21;18.90;99.90
4461;DHT22;2243;48.812;9.232;2022-10-17T09:28:16;18.90;99.90
4461;DHT22;2243;48.812;9.232;2022-10-17T09:33:49;19.10;99.90
4461;DHT22;2243;48.812;9.232;2022-10-17T09:36:30;19.20;99.90
4461;DHT22;2243;48.812;9.232;2022-10-17T09:39:22;19.20;99.90
4461;DHT22;2243;48.812;9.232;2022-10-17T09:41:57;19.30;99.90
4461;DHT22;2243;48.812;9.232;2022-10-17T09:44:34;19.40;99.90
4461;DHT22;2243;48.812;9.232;2022-10-17T09:47:20;19.50;99.90
4461;DHT22;2243;48.812;9.232;2022-10-17T09:49:53;19.50;99.90
4461;DHT22;2243;48.812;9.232;2022-10-17T09:55:03;19.70;99.90
4461;DHT22;2243;48.812;9.232;2022-10-17T10:03:24;20.00;99.90
4461;DHT22;2243;48.812;9.232;2022-10-17T10:06:15;20.10;99.90
4461;DHT22;2243;48.812;9.232;2022-10-17T10:08:56;20.20;99.90
4461;DHT22;2243;48.812;9.232;2022-10-17T10:11:53;20.30;99.90
4461;DHT22;2243;48.812;9.232;2022-10-17T10:14:30;20.30;99.90
4461;DHT22;2243;48.812;9.232;2022-10-17T10:17:26;20.40;99.90
4461;DHT22;2243;48.812;9.232;2022-10-17T10:20:00;20.50;99.90
4461;DHT22;2243;48.812;9.232;2022-10-17T10:22:31;20.50;99.90
4461;DHT22;2243;48.812;9.232;2022-10-17T10:25:16;20.70;99.90
4461;DHT22;2243;48.812;9.232;2022-10-17T10:27:47;20.90;99.90
4461;DHT22;2243;48.812;9.232;2022-10-17T10:30:21;21.40;99.90
4461;DHT22;2243;48.812;9.232;2022-10-17T10:32:57;22.00;99.90
4461;DHT22;2243;48.812;9.232;2022-10-17T10:35:32;22.60;99.90
4461;DHT22;2243;48.812;9.232;2022-10-17T10:38:14;22.70;99.90
4461;DHT22;2243;48.812;9.232;2022-10-17T10:40:53;22.90;99.90
4461;DHT22;2243;48.812;9.232;2022-10-17T10:43:34;23.30;99.90
4461;DHT22;2243;48.812;9.232;2022-10-17T10:46:22;23.30;99.90
4461;DHT22;2243;48.812;9.232;2022-10-17T10:48:57;23.40;99.90
4461;DHT22;2243;48.812;9.232;2022-10-17T10:51:43;23.40;99.90
4461;DHT22;2243;48.812;9.232;2022-10-17T10:54:24;23.30;99.90
4461;DHT22;2243;48.812;9.232;2022-10-17T10:57:03;23.30;99.90
4461;DHT22;2243;48.812;9.232;2022-10-17T11:02:58;23.20;99.90
4461;DHT22;2243;48.812;9.232;2022-10-17T11:08:30;23.10;99.90
4461;DHT22;2243;48.812;9.232;2022-10-17T11:11:24;23.30;99.90
4461;DHT22;2243;48.812;9.232;2022-10-17T11:14:02;23.50;99.90
4461;DHT22;2243;48.812;9.232;2022-10-17T11:17:10;23.40;99.90
4461;DHT22;2243;48.812;9.232;2022-10-17T11:20:00;23.30;99.90
4461;DHT22;2243;48.812;9.232;2022-10-17T11:22:54;23.60;99.90
4461;DHT22;2243;48.812;9.232;2022-10-17T11:25:37;23.80;99.90
4461;DHT22;2243;48.812;9.232;2022-10-17T11:28:15;24.00;99.90
4461;DHT22;2243;48.812;9.232;2022-10-17T11:30:55;24.40;99.90
4461;DHT22;2243;48.812;9.232;2022-10-17T11:33:58;24.60;99.90
4461;DHT22;2243;48.812;9.232;2022-10-17T11:36:39;24.60;99.90
4461;DHT22;2243;48.812;9.232;2022-10-17T11:40:01;24.80;99.90
4461;DHT22;2243;48.812;9.232;2022-10-17T11:42:23;24.80;99.90
4461;DHT22;2243;48.812;9.232;2022-10-17T11:45:06;25.30;99.90
4461;DHT22;2243;48.812;9.232;2022-10-17T11:47:50;25.60;99.90
4461;DHT22;2243;48.812;9.232;2022-10-17T11:50:37;25.70;99.00
4461;DHT22;2243;48.812;9.232;2022-10-17T11:53:43;25.70;99.70
4461;DHT22;2243;48.812;9.232;2022-10-17T11:56:21;25.90;98.90
4461;DHT22;2243;48.812;9.232;2022-10-17T12:09:10;26.70;95.60
4461;DHT22;2243;48.812;9.232;2022-10-17T12:14:42;26.80;92.30
4461;DHT22;2243;48.812;9.232;2022-10-17T12:22:58;27.00;90.40
4461;DHT22;2243;48.812;9.232;2022-10-17T12:25:53;27.00;90.50
4461;DHT22;2243;48.812;9.232;2022-10-17T12:28:42;27.00;90.40
4461;DHT22;2243;48.812;9.232;2022-10-17T12:34:03;27.30;89.60
4461;DHT22;2243;48.812;9.232;2022-10-17T12:36:35;27.30;88.60
4461;DHT22;2243;48.812;9.232;2022-10-17T12:49:44;26.90;88.30
4461;DHT22;2243;48.812;9.232;2022-10-17T12:58:02;27.10;87.60
4461;DHT22;2243;48.812;9.232;2022-10-17T13:00:36;27.20;86.80
4461;DHT22;2243;48.812;9.232;2022-10-17T13:03:34;27.30;87.30
4461;DHT22;2243;48.812;9.232;2022-10-17T13:06:24;27.40;87.10
4461;DHT22;2243;48.812;9.232;2022-10-17T13:09:03;27.50;86.60
4461;DHT22;2243;48.812;9.232;2022-10-17T13:11:38;27.40;86.40
4461;DHT22;2243;48.812;9.232;2022-10-17T13:14:11;27.30;87.00
4461;DHT22;2243;48.812;9.232;2022-10-17T13:16:51;27.30;86.30
4461;DHT22;2243;48.812;9.232;2022-10-17T13:19:44;27.30;86.70
4461;DHT22;2243;48.812;9.232;2022-10-17T13:22:24;27.60;90.20
4461;DHT22;2243;48.812;9.232;2022-10-17T13:25:07;27.50;91.90
4461;DHT22;2243;48.812;9.232;2022-10-17T13:27:46;27.20;93.10
4461;DHT22;2243;48.812;9.232;2022-10-17T13:30:45;27.30;92.40
4461;DHT22;2243;48.812;9.232;2022-10-17T13:33:34;27.00;92.10
4461;DHT22;2243;48.812;9.232;2022-10-17T13:36:13;26.90;92.00
4461;DHT22;2243;48.812;9.232;2022-10-17T13:38:49;26.60;92.30
4461;DHT22;2243;48.812;9.232;2022-10-17T13:41:28;26.60;92.20
4461;DHT22;2243;48.812;9.232;2022-10-17T13:44:17;26.70;93.10
4461;DHT22;2243;48.812;9.232;2022-10-17T13:46:51;26.90;92.60
4461;DHT22;2243;48.812;9.232;2022-10-17T13:49:25;27.00;92.10
4461;DHT22;2243;48.812;9.232;2022-10-17T13:52:06;26.90;92.00
4461;DHT22;2243;48.812;9.232;2022-10-17T13:54:47;27.10;92.60
4461;DHT22;2243;48.812;9.232;2022-10-17T13:57:26;27.30;91.80
4461;DHT22;2243;48.812;9.232;2022-10-17T14:00:10;27.10;91.90
4461;DHT22;2243;48.812;9.232;2022-10-17T14:02:48;27.30;91.90
4461;DHT22;2243;48.812;9.232;2022-10-17T14:05:20;27.40;91.60
4461;DHT22;2243;48.812;9.232;2022-10-17T14:07:55;27.60;91.70
4461;DHT22;2243;48.812;9.232;2022-10-17T14:10:42;27.70;90.70
4461;DHT22;2243;48.812;9.232;2022-10-17T14:13:22;27.50;90.80
4461;DHT22;2243;48.812;9.232;2022-10-17T14:15:59;27.40;90.80
4461;DHT22;2243;48.812;9.232;2022-10-17T14:18:35;27.40;90.40
4461;DHT22;2243;48.812;9.232;2022-10-17T14:21:06;27.20;90.50
4461;DHT22;2243;48.812;9.232;2022-10-17T14:26:55;27.20;90.50
4461;DHT22;2243;48.812;9.232;2022-10-17T14:29:31;27.30;90.30
4461;DHT22;2243;48.812;9.232;2022-10-17T14:32:20;27.20;90.80
4461;DHT22;2243;48.812;9.232;2022-10-17T14:34:54;27.30;90.40
4461;DHT22;2243;48.812;9.232;2022-10-17T14:37:48;27.20;90.30
4461;DHT22;2243;48.812;9.232;2022-10-17T14:40:22;27.20;90.40
4461;DHT22;2243;48.812;9.232;2022-10-17T14:42:57;27.00;90.60
4461;DHT22;2243;48.812;9.232;2022-10-17T14:45:35;27.10;90.00
4461;DHT22;2243;48.812;9.232;2022-10-17T14:48:14;26.90;89.80
4461;DHT22;2243;48.812;9.232;2022-10-17T14:51:15;26.90;89.90
4461;DHT22;2243;48.812;9.232;2022-10-17T14:54:19;26.80;90.10
4461;DHT22;2243;48.812;9.232;2022-10-17T14:56:53;26.60;90.40
4461;DHT22;2243;48.812;9.232;2022-10-17T14:59:25;26.40;91.20
4461;DHT22;2243;48.812;9.232;2022-10-17T15:02:16;26.30;91.50
4461;DHT22;2243;48.812;9.232;2022-10-17T15:04:47;26.10;92.00
4461;DHT22;2243;48.812;9.232;2022-10-17T15:07:19;25.80;92.80
4461;DHT22;2243;48.812;9.232;2022-10-17T15:09:53;25.70;92.60
4461;DHT22;2243;48.812;9.232;2022-10-17T15:12:25;25.50;92.50
4461;DHT22;2243;48.812;9.232;2022-10-17T15:14:56;25.50;92.90
4461;DHT22;2243;48.812;9.232;2022-10-17T15:17:29;25.40;93.00
4461;DHT22;2243;48.812;9.232;2022-10-17T15:20:00;25.30;92.80
4461;DHT22;2243;48.812;9.232;2022-10-17T15:22:31;25.30;93.40
4461;DHT22;2243;48.812;9.232;2022-10-17T15:25:06;25.20;94.00
4461;DHT22;2243;48.812;9.232;2022-10-17T15:27:37;25.20;94.20
4461;DHT22;2243;48.812;9.232;2022-10-17T15:30:26;25.10;94.00
4461;DHT22;2243;48.812;9.232;2022-10-17T15:33:04;25.10;94.40
4461;DHT22;2243;48.812;9.232;2022-10-17T15:35:35;25.00;94.90
4461;DHT22;2243;48.812;9.232;2022-10-17T15:38:07;25.00;95.40
4461;DHT22;2243;48.812;9.232;2022-10-17T15:40:40;25.00;95.50
4461;DHT22;2243;48.812;9.232;2022-10-17T15:43:11;25.00;96.00
4461;DHT22;2243;48.812;9.232;2022-10-17T15:45:47;24.80;96.40
4461;DHT22;2243;48.812;9.232;2022-10-17T15:48:24;24.80;96.90
4461;DHT22;2243;48.812;9.232;2022-10-17T15:50:58;24.80;97.20
4461;DHT22;2243;48.812;9.232;2022-10-17T15:53:29;24.80;97.10
4461;DHT22;2243;48.812;9.232;2022-10-17T15:56:00;24.80;97.10
4461;DHT22;2243;48.812;9.232;2022-10-17T15:58:40;24.70;97.80
4461;DHT22;2243;48.812;9.232;2022-10-17T16:01:21;24.50;97.70
4461;DHT22;2243;48.812;9.232;2022-10-17T16:03:54;24.50;97.40
4461;DHT22;2243;48.812;9.232;2022-10-17T16:06:25;24.50;97.60
4461;DHT22;2243;48.812;9.232;2022-10-17T16:08:56;24.40;97.50
4461;DHT22;2243;48.812;9.232;2022-10-17T16:11:32;24.30;97.50
4461;DHT22;2243;48.812;9.232;2022-10-17T16:14:14;24.20;97.70
4461;DHT22;2243;48.812;9.232;2022-10-17T16:16:45;24.10;98.20
4461;DHT22;2243;48.812;9.232;2022-10-17T16:19:16;23.90;98.90
4461;DHT22;2243;48.812;9.232;2022-10-17T16:21:47;23.70;99.20
4461;DHT22;2243;48.812;9.232;2022-10-17T16:24:18;23.50;99.90
4461;DHT22;2243;48.812;9.232;2022-10-17T16:26:49;23.30;99.90
4461;DHT22;2243;48.812;9.232;2022-10-17T16:29:21;23.20;99.90
4461;DHT22;2243;48.812;9.232;2022-10-17T16:31:51;23.10;99.90
4461;DHT22;2243;48.812;9.232;2022-10-17T16:34:22;23.00;99.90
4461;DHT22;2243;48.812;9.232;2022-10-17T16:36:53;22.90;99.90
4461;DHT22;2243;48.812;9.232;2022-10-17T16:39:24;22.80;99.90
4461;DHT22;2243;48.812;9.232;2022-10-17T16:42:00;22.70;99.90
4461;DHT22;2243;48.812;9.232;2022-10-17T16:44:31;22.50;99.90
4461;DHT22;2243;48.812;9.232;2022-10-17T16:47:02;22.30;99.90
4461;DHT22;2243;48.812;9.232;2022-10-17T16:49:33;22.00;99.90
4461;DHT22;2243;48.812;9.232;2022-10-17T16:52:04;21.90;99.90
4461;DHT22;2243;48.812;9.232;2022-10-17T16:54:35;21.80;99.90
4461;DHT22;2243;48.812;9.232;2022-10-17T16:57:06;21.60;99.90
4461;DHT22;2243;48.812;9.232;2022-10-17T16:59:37;21.50;99.90
4461;DHT22;2243;48.812;9.232;2022-10-17T17:02:09;21.30;99.90
4461;DHT22;2243;48.812;9.232;2022-10-17T17:04:41;21.20;99.90
4461;DHT22;2243;48.812;9.232;2022-10-17T17:07:12;21.10;99.90
4461;DHT22;2243;48.812;9.232;2022-10-17T17:09:43;21.00;99.90
4461;DHT22;2243;48.812;9.232;2022-10-17T17:12:14;20.80;99.90
4461;DHT22;2243;48.812;9.232;2022-10-17T17:14:45;20.70;99.90
4461;DHT22;2243;48.812;9.232;2022-10-17T17:17:16;20.60;99.90
4461;DHT22;2243;48.812;9.232;2022-10-17T17:20:06;20.50;99.90
4461;DHT22;2243;48.812;9.232;2022-10-17T17:22:38;20.30;99.90
4461;DHT22;2243;48.812;9.232;2022-10-17T17:25:09;20.30;99.90
4461;DHT22;2243;48.812;9.232;2022-10-17T17:27:39;20.10;99.90
4461;DHT22;2243;48.812;9.232;2022-10-17T17:30:10;20.10;99.90
4461;DHT22;2243;48.812;9.232;2022-10-17T17:32:42;20.00;99.90
4461;DHT22;2243;48.812;9.232;2022-10-17T17:35:13;19.90;99.90
4461;DHT22;2243;48.812;9.232;2022-10-17T17:37:43;19.90;99.90
4461;DHT22;2243;48.812;9.232;2022-10-17T17:40:14;19.80;99.90
4461;DHT22;2243;48.812;9.232;2022-10-17T17:42:45;19.70;99.90
4461;DHT22;2243;48.812;9.232;2022-10-17T17:45:16;19.70;99.90
4461;DHT22;2243;48.812;9.232;2022-10-17T17:47:47;19.50;99.90
4461;DHT22;2243;48.812;9.232;2022-10-17T17:50:21;19.40;99.90
4461;DHT22;2243;48.812;9.232;2022-10-17T17:52:52;19.30;99.90
4461;DHT22;2243;48.812;9.232;2022-10-17T17:55:23;19.20;99.90
4461;DHT22;2243;48.812;9.232;2022-10-17T17:57:54;19.10;99.90
4461;DHT22;2243;48.812;9.232;2022-10-17T18:00:26;19.00;99.90
4461;DHT22;2243;48.812;9.232;2022-10-17T18:02:57;19.00;99.90
4461;DHT22;2243;48.812;9.232;2022-10-17T18:05:29;18.90;99.90
4461;DHT22;2243;48.812;9.232;2022-10-17T18:08:00;18.90;99.90
4461;DHT22;2243;48.812;9.232;2022-10-17T18:10:31;18.90;99.90
4461;DHT22;2243;48.812;9.232;2022-10-17T18:13:02;18.80;99.90
4461;DHT22;2243;48.812;9.232;2022-10-17T18:15:33;18.60;99.90
4461;DHT22;2243;48.812;9.232;2022-10-17T18:18:04;18.60;99.90
4461;DHT22;2243;48.812;9.232;2022-10-17T18:20:40;18.50;99.90
4461;DHT22;2243;48.812;9.232;2022-10-17T18:23:12;18.40;99.90
4461;DHT22;2243;48.812;9.232;2022-10-17T18:25:55;18.50;99.90
4461;DHT22;2243;48.812;9.232;2022-10-17T18:28:27;18.40;99.90
4461;DHT22;2243;48.812;9.232;2022-10-17T18:31:16;18.40;99.90
4461;DHT22;2243;48.812;9.232;2022-10-17T18:33:54;18.30;99.90
4461;DHT22;2243;48.812;9.232;2022-10-17T18:36:27;18.10;99.90